Time;durP1;ratioP1;P1;durP2;ratioP2;P2;SDS_P1;SDS_P2;PMS_P1;PMS_P2;Temp;Humidity;BMP_temperature;BMP_pressure;BME280_temperature;BME280_humidity;BME280_pressure;Samples;Min_cycle;Max_cycle;Signal;HPM_P1;HPM_P2
2023/09/11 00:01:59;;;;;;;18.42;15.93;;;24.20;99.90;;;;;;4953414;28;20015;-76
2023/09/11 00:04:25;;;;;;;20.48;15.85;;;24.20;99.90;;;;;;4966561;28;20089;-76
2023/09/11 00:06:51;;;;;;;18.90;17.02;;;24.20;99.90;;;;;;4955345;28;20019;-76
2023/09/11 00:09:16;;;;;;;20.13;16.30;;;24.20;99.90;;;;;;4962005;28;20059;-77
2023/09/11 00:11:42;;;;;;;18.25;15.93;;;24.20;99.90;;;;;;4953364;28;20510;-76
2023/09/11 00:14:08;;;;;;;18.70;16.40;;;24.20;99.90;;;;;;4963085;28;20030;-76
2023/09/11 00:16:33;;;;;;;18.40;16.20;;;24.10;99.90;;;;;;4956939;28;20106;-77
2023/09/11 00:18:59;;;;;;;19.33;16.85;;;24.10;99.90;;;;;;4955790;28;20042;-76
2023/09/11 00:21:25;;;;;;;18.33;16.42;;;24.10;99.90;;;;;;4962207;28;20024;-76
2023/09/11 00:23:50;;;;;;;21.67;16.98;;;24.10;99.90;;;;;;4960597;28;20031;-76
2023/09/11 00:26:16;;;;;;;20.27;16.10;;;24.10;99.90;;;;;;4954670;28;20043;-76
2023/09/11 00:28:42;;;;;;;21.65;16.88;;;24.00;99.90;;;;;;4959609;28;20055;-76
2023/09/11 00:31:08;;;;;;;20.50;17.23;;;24.00;99.90;;;;;;4962605;28;20394;-77
2023/09/11 00:33:33;;;;;;;19.00;15.98;;;24.00;99.90;;;;;;4956222;28;20484;-76
2023/09/11 00:35:59;;;;;;;18.40;16.48;;;24.00;99.90;;;;;;4955512;28;20089;-77
2023/09/11 00:38:24;;;;;;;18.95;16.95;;;23.90;99.90;;;;;;4962644;28;20382;-78
2023/09/11 00:40:50;;;;;;;19.83;16.95;;;23.90;99.90;;;;;;4959615;28;20050;-76
2023/09/11 00:43:16;;;;;;;21.55;15.98;;;23.90;99.90;;;;;;4954654;28;20397;-77
2023/09/11 00:45:42;;;;;;;18.23;16.17;;;23.90;99.90;;;;;;4959410;28;20602;-76
2023/09/11 00:48:09;;;;;;;19.25;15.82;;;23.80;99.90;;;;;;4962654;28;20027;-76
2023/09/11 00:50:35;;;;;;;18.95;16.92;;;23.80;99.90;;;;;;4955760;28;20026;-76
2023/09/11 00:53:03;;;;;;;22.15;17.75;;;23.80;99.90;;;;;;4955412;28;20035;-76
2023/09/11 00:55:29;;;;;;;18.77;16.77;;;23.80;99.90;;;;;;4944916;29;20110;-76
2023/09/11 00:57:55;;;;;;;22.25;17.63;;;23.80;99.90;;;;;;4943085;28;20453;-76
2023/09/11 01:00:21;;;;;;;23.77;16.75;;;23.80;99.90;;;;;;4954624;28;20599;-76
2023/09/11 01:02:48;;;;;;;19.13;17.15;;;23.70;99.90;;;;;;4958931;28;20023;-76
2023/09/11 01:05:13;;;;;;;19.35;17.10;;;23.70;99.90;;;;;;4962073;28;20158;-76
2023/09/11 01:07:39;;;;;;;17.65;15.52;;;23.70;99.90;;;;;;4956390;28;20105;-76
2023/09/11 01:10:06;;;;;;;20.00;17.50;;;23.70;99.90;;;;;;4954750;28;20039;-77
2023/09/11 01:12:36;;;;;;;21.10;16.98;;;23.70;99.90;;;;;;4945540;29;20035;-76
2023/09/11 01:15:04;;;;;;;19.85;16.95;;;23.60;99.90;;;;;;4957235;28;20476;-76
2023/09/11 01:17:57;;;;;;;20.75;16.80;;;23.60;99.90;;;;;;4953530;28;20023;-77
2023/09/11 01:20:58;;;;;;;22.27;18.05;;;23.60;99.90;;;;;;4959119;28;20070;-77
2023/09/11 01:23:58;;;;;;;17.60;15.73;;;23.60;99.90;;;;;;4885072;29;20180;-77
2023/09/11 01:26:54;;;;;;;19.33;16.30;;;23.60;99.90;;;;;;4878437;29;20758;-77
2023/09/11 01:29:25;;;;;;;19.95;16.42;;;23.60;99.90;;;;;;4889305;29;20065;-77
2023/09/11 01:31:53;;;;;;;20.23;16.30;;;23.60;99.90;;;;;;4901651;29;20051;-76
2023/09/11 01:34:19;;;;;;;22.25;17.60;;;23.60;99.90;;;;;;4905562;29;20059;-77
2023/09/11 01:36:45;;;;;;;21.83;17.67;;;23.50;99.90;;;;;;4898384;29;20055;-76
2023/09/11 01:39:11;;;;;;;19.45;17.55;;;23.50;99.90;;;;;;4904973;29;20070;-77
2023/09/11 01:41:43;;;;;;;21.98;17.67;;;23.50;99.90;;;;;;4924860;29;20119;-76
2023/09/11 01:44:22;;;;;;;17.40;15.32;;;23.50;99.90;;;;;;4906125;29;20046;-76
2023/09/11 01:46:50;;;;;;;22.35;18.05;;;23.40;99.90;;;;;;4917859;29;20602;-77
2023/09/11 01:49:19;;;;;;;22.05;17.08;;;23.50;99.90;;;;;;4921425;29;20028;-77
2023/09/11 01:51:47;;;;;;;20.05;17.73;;;23.40;99.90;;;;;;4909935;29;20043;-76
2023/09/11 01:54:14;;;;;;;22.70;17.42;;;23.40;99.90;;;;;;4921845;29;20039;-77
2023/09/11 01:56:39;;;;;;;21.75;17.77;;;23.40;99.90;;;;;;4926302;28;20053;-77
2023/09/11 01:59:05;;;;;;;28.35;17.13;;;23.40;99.90;;;;;;4965711;28;20023;-77
2023/09/11 02:01:31;;;;;;;26.38;17.98;;;23.40;99.90;;;;;;4965769;28;20034;-77
2023/09/11 02:03:56;;;;;;;21.33;18.48;;;23.40;99.90;;;;;;4965012;28;20799;-77
2023/09/11 02:06:22;;;;;;;23.52;17.83;;;23.40;99.90;;;;;;4963249;28;20033;-77
2023/09/11 02:08:48;;;;;;;22.15;17.60;;;23.30;99.90;;;;;;4970589;28;20019;-76
2023/09/11 02:11:13;;;;;;;20.50;16.98;;;23.30;99.90;;;;;;4957364;28;20490;-76
2023/09/11 02:13:40;;;;;;;20.52;17.83;;;23.30;99.90;;;;;;4954426;28;20019;-77
2023/09/11 02:16:06;;;;;;;20.45;17.27;;;23.30;99.90;;;;;;4966357;28;20031;-76
2023/09/11 02:18:31;;;;;;;20.88;16.77;;;23.30;99.90;;;;;;4962765;28;20031;-77
2023/09/11 02:20:57;;;;;;;25.00;18.75;;;23.30;99.90;;;;;;4958289;28;20522;-77
2023/09/11 02:23:23;;;;;;;21.15;18.10;;;23.30;99.90;;;;;;4967908;28;20494;-77
2023/09/11 02:25:48;;;;;;;20.60;17.20;;;23.30;99.90;;;;;;4965430;28;20039;-77
2023/09/11 02:28:14;;;;;;;21.65;17.60;;;23.20;99.90;;;;;;4958246;28;20023;-76
2023/09/11 02:30:40;;;;;;;21.02;16.70;;;23.20;99.90;;;;;;4959638;28;20124;-76
2023/09/11 02:33:06;;;;;;;22.48;19.73;;;23.20;99.90;;;;;;4965314;28;20019;-76
2023/09/11 02:35:31;;;;;;;27.08;18.67;;;23.20;99.90;;;;;;4960460;28;20046;-76
2023/09/11 02:38:00;;;;;;;22.40;17.83;;;23.10;99.90;;;;;;4957463;28;20114;-76
2023/09/11 02:40:27;;;;;;;22.83;18.00;;;23.10;99.90;;;;;;4962805;28;20035;-76
2023/09/11 02:42:52;;;;;;;21.52;16.33;;;23.10;99.90;;;;;;4964748;28;20031;-76
2023/09/11 02:45:18;;;;;;;21.20;17.92;;;23.10;99.90;;;;;;4943434;28;20563;-77
2023/09/11 02:47:44;;;;;;;94.97;21.38;;;23.10;99.90;;;;;;4959259;28;20027;-76
2023/09/11 02:50:09;;;;;;;22.15;17.52;;;23.10;99.90;;;;;;4964763;28;20078;-76
2023/09/11 02:52:35;;;;;;;22.58;17.95;;;23.00;99.90;;;;;;4960808;28;20235;-76
2023/09/11 02:55:01;;;;;;;24.38;18.40;;;23.00;99.90;;;;;;4956625;28;20034;-76
2023/09/11 02:57:26;;;;;;;20.02;17.73;;;23.00;99.90;;;;;;4945343;29;20386;-76
2023/09/11 02:59:55;;;;;;;20.27;17.55;;;23.00;99.90;;;;;;4964236;28;20521;-77
2023/09/11 03:02:21;;;;;;;21.70;18.17;;;22.90;99.90;;;;;;4943605;28;20011;-76
2023/09/11 03:04:53;;;;;;;20.50;18.17;;;23.00;99.90;;;;;;4967637;28;20443;-77
2023/09/11 03:07:18;;;;;;;20.27;17.98;;;22.90;99.90;;;;;;4934899;28;20034;-76
2023/09/11 03:09:44;;;;;;;19.63;17.58;;;22.90;99.90;;;;;;4959678;28;20023;-77
2023/09/11 03:12:11;;;;;;;23.17;17.52;;;22.90;99.90;;;;;;4946526;29;20023;-77
2023/09/11 03:14:36;;;;;;;25.10;19.65;;;22.80;99.90;;;;;;4964550;28;20657;-76
2023/09/11 03:17:02;;;;;;;19.17;16.98;;;22.80;99.90;;;;;;4961819;28;20014;-77
2023/09/11 03:19:27;;;;;;;24.70;18.52;;;22.80;99.90;;;;;;4956390;28;20667;-77
2023/09/11 03:21:56;;;;;;;25.08;18.92;;;22.80;99.90;;;;;;4961090;28;20027;-76
2023/09/11 03:24:22;;;;;;;19.85;17.60;;;22.70;99.90;;;;;;4964697;28;20050;-76
2023/09/11 03:26:47;;;;;;;23.92;18.90;;;22.70;99.90;;;;;;4959113;28;20019;-76
2023/09/11 03:29:13;;;;;;;21.55;19.25;;;22.70;99.90;;;;;;4958589;28;20042;-76
2023/09/11 03:31:39;;;;;;;21.58;17.85;;;22.70;99.90;;;;;;4964417;28;20098;-76
2023/09/11 03:34:04;;;;;;;19.15;16.38;;;22.60;99.90;;;;;;4962892;28;20137;-76
2023/09/11 03:36:30;;;;;;;21.45;18.50;;;22.60;99.90;;;;;;4955870;28;20050;-75
2023/09/11 03:38:56;;;;;;;20.95;17.75;;;22.60;99.90;;;;;;4960274;28;20576;-76
2023/09/11 03:41:21;;;;;;;21.52;18.67;;;22.60;99.90;;;;;;4964893;28;20572;-77
2023/09/11 03:43:47;;;;;;;22.15;18.40;;;22.50;99.90;;;;;;4958276;28;20031;-76
2023/09/11 03:46:14;;;;;;;22.38;17.67;;;22.50;99.90;;;;;;4956344;28;20058;-76
2023/09/11 03:48:40;;;;;;;23.00;18.70;;;22.50;99.90;;;;;;4963898;28;20049;-76
2023/09/11 03:51:06;;;;;;;20.10;17.25;;;22.50;99.90;;;;;;4943988;28;20034;-76
2023/09/11 03:53:32;;;;;;;23.02;19.27;;;22.40;99.90;;;;;;4955936;28;20026;-76
2023/09/11 03:55:58;;;;;;;20.98;18.75;;;22.40;99.90;;;;;;4959744;28;20470;-78
2023/09/11 03:58:24;;;;;;;19.63;17.50;;;22.40;99.90;;;;;;4946385;28;20540;-77
2023/09/11 04:00:49;;;;;;;20.95;18.38;;;22.40;99.90;;;;;;4957512;28;20034;-76
2023/09/11 04:03:15;;;;;;;25.13;19.60;;;22.40;99.90;;;;;;4955883;28;20850;-76
2023/09/11 04:05:41;;;;;;;22.38;18.90;;;22.40;99.90;;;;;;4963100;28;20023;-76
2023/09/11 04:08:06;;;;;;;21.17;18.80;;;22.40;99.90;;;;;;4961515;28;20018;-76
2023/09/11 04:10:32;;;;;;;23.92;18.35;;;22.30;99.90;;;;;;4955123;28;20401;-75
2023/09/11 04:12:58;;;;;;;23.33;19.60;;;22.30;99.90;;;;;;4938261;28;20461;-76
2023/09/11 04:15:23;;;;;;;22.05;17.95;;;22.30;99.90;;;;;;4957518;28;20569;-76
2023/09/11 04:17:49;;;;;;;22.25;18.95;;;22.30;99.90;;;;;;4945800;29;20536;-76
2023/09/11 04:20:15;;;;;;;21.55;18.13;;;22.30;99.90;;;;;;4959226;28;20038;-76
2023/09/11 04:22:41;;;;;;;22.83;19.10;;;22.30;99.90;;;;;;4955145;28;20019;-76
2023/09/11 04:25:07;;;;;;;20.95;18.75;;;22.20;99.90;;;;;;4961299;28;20023;-76
2023/09/11 04:27:32;;;;;;;21.75;19.33;;;22.20;99.90;;;;;;4945467;28;20106;-76
2023/09/11 04:29:59;;;;;;;24.33;19.58;;;22.20;99.90;;;;;;4955041;28;20042;-76
2023/09/11 04:32:25;;;;;;;22.23;19.92;;;22.20;99.90;;;;;;4957173;28;20600;-76
2023/09/11 04:34:50;;;;;;;22.88;18.77;;;22.20;99.90;;;;;;4946209;29;20065;-76
2023/09/11 04:37:17;;;;;;;21.50;19.15;;;22.20;99.90;;;;;;4958740;28;20058;-76
2023/09/11 04:39:42;;;;;;;24.10;19.48;;;22.10;99.90;;;;;;4955073;28;20039;-76
2023/09/11 04:42:08;;;;;;;24.48;20.58;;;22.10;99.90;;;;;;4960770;28;20394;-76
2023/09/11 04:44:34;;;;;;;21.52;19.23;;;22.10;99.90;;;;;;4962743;28;20068;-76
2023/09/11 04:46:59;;;;;;;29.33;20.38;;;22.10;99.90;;;;;;4955165;28;20050;-76
2023/09/11 04:49:25;;;;;;;23.88;18.85;;;22.10;99.90;;;;;;4957083;28;20094;-75
2023/09/11 04:51:52;;;;;;;23.65;19.65;;;22.10;99.90;;;;;;4962705;28;20024;-75
2023/09/11 04:54:18;;;;;;;21.88;18.48;;;22.00;99.90;;;;;;4957477;28;20019;-75
2023/09/11 04:56:44;;;;;;;21.98;19.30;;;22.00;99.90;;;;;;4954594;28;20031;-75
2023/09/11 04:59:10;;;;;;;20.77;18.48;;;22.00;99.90;;;;;;4960984;28;20031;-75
2023/09/11 05:01:35;;;;;;;24.02;19.70;;;22.00;99.90;;;;;;4948541;29;20369;-78
2023/09/11 05:04:03;;;;;;;24.70;21.98;;;22.00;99.90;;;;;;4966036;28;20487;-75
2023/09/11 05:06:28;;;;;;;27.08;20.77;;;22.00;99.90;;;;;;4955548;28;20046;-75
2023/09/11 05:08:55;;;;;;;25.73;20.23;;;21.90;99.90;;;;;;4962916;28;20504;-78
2023/09/11 05:11:21;;;;;;;25.88;19.73;;;21.90;99.90;;;;;;4952540;28;20027;-76
2023/09/11 05:13:46;;;;;;;19.90;17.80;;;21.90;99.90;;;;;;4960925;28;20027;-76
2023/09/11 05:16:12;;;;;;;22.70;18.70;;;21.90;99.90;;;;;;4954157;28;20106;-76
2023/09/11 05:18:38;;;;;;;20.30;17.92;;;21.90;99.90;;;;;;4958835;28;20085;-76
2023/09/11 05:21:03;;;;;;;23.42;19.67;;;21.90;99.90;;;;;;4963192;28;20034;-76
2023/09/11 05:23:29;;;;;;;23.63;18.38;;;21.90;99.90;;;;;;4957099;28;20027;-76
2023/09/11 05:25:55;;;;;;;20.73;17.92;;;21.90;99.90;;;;;;4954540;28;20034;-76
2023/09/11 05:28:20;;;;;;;19.58;17.13;;;21.90;99.90;;;;;;4961648;28;20093;-76
2023/09/11 05:30:48;;;;;;;20.38;17.70;;;21.90;99.90;;;;;;4960336;28;20110;-76
2023/09/11 05:33:14;;;;;;;23.63;18.20;;;21.90;99.90;;;;;;4954243;28;20027;-76
2023/09/11 05:35:39;;;;;;;23.52;18.52;;;21.90;99.90;;;;;;4957427;28;20027;-76
2023/09/11 05:38:05;;;;;;;20.02;17.48;;;21.90;99.90;;;;;;4951123;28;20079;-76
2023/09/11 05:40:30;;;;;;;24.00;19.67;;;21.90;99.90;;;;;;4958856;28;20557;-76
2023/09/11 05:42:56;;;;;;;20.42;17.80;;;21.90;99.90;;;;;;4961818;28;20486;-76
2023/09/11 05:45:22;;;;;;;19.75;17.23;;;21.90;99.90;;;;;;4954204;28;20110;-75
2023/09/11 05:47:48;;;;;;;23.50;19.92;;;21.90;99.90;;;;;;4955652;28;20027;-76
2023/09/11 05:50:14;;;;;;;21.83;18.73;;;21.90;99.90;;;;;;4961881;28;20050;-75
2023/09/11 05:52:40;;;;;;;20.58;18.38;;;21.90;99.90;;;;;;4958240;28;20042;-76
2023/09/11 05:55:06;;;;;;;19.27;17.27;;;21.90;99.90;;;;;;4953923;28;20042;-76
2023/09/11 05:57:32;;;;;;;20.38;18.27;;;21.90;99.90;;;;;;4959355;28;20028;-76
2023/09/11 05:59:57;;;;;;;24.33;17.73;;;22.00;99.90;;;;;;4931586;28;20038;-76
2023/09/11 06:02:23;;;;;;;21.13;18.85;;;22.00;99.90;;;;;;4959796;28;20027;-77
2023/09/11 06:04:49;;;;;;;22.85;20.40;;;22.00;99.90;;;;;;4939942;29;20688;-77
2023/09/11 06:07:16;;;;;;;24.55;18.15;;;22.00;99.90;;;;;;4944364;29;20038;-75
2023/09/11 06:09:42;;;;;;;22.30;19.35;;;22.00;99.90;;;;;;4941766;28;20073;-76
2023/09/11 06:12:08;;;;;;;23.00;18.67;;;22.10;99.90;;;;;;4963973;28;20019;-77
2023/09/11 06:14:37;;;;;;;19.60;17.63;;;22.10;99.90;;;;;;4954066;28;20197;-78
2023/09/11 06:17:04;;;;;;;18.70;16.17;;;22.10;99.90;;;;;;4956281;28;20031;-76
2023/09/11 06:19:30;;;;;;;24.15;18.15;;;22.10;99.90;;;;;;4964922;28;20114;-76
2023/09/11 06:21:56;;;;;;;21.00;18.75;;;22.10;99.90;;;;;;4960949;28;20109;-76
2023/09/11 06:24:22;;;;;;;19.65;17.55;;;22.20;99.90;;;;;;4957723;28;20363;-76
2023/09/11 06:27:07;;;;;;;20.30;17.63;;;22.20;99.90;;;;;;4946090;29;20019;-75
2023/09/11 06:29:33;;;;;;;23.30;18.25;;;22.20;99.90;;;;;;4965263;28;20378;-76
2023/09/11 06:31:59;;;;;;;22.02;16.50;;;22.30;99.90;;;;;;4959540;28;20037;-76
2023/09/11 06:34:25;;;;;;;22.38;19.95;;;22.30;99.90;;;;;;4939967;28;20027;-76
2023/09/11 06:36:53;;;;;;;22.52;17.13;;;22.30;99.90;;;;;;4964747;28;20134;-76
2023/09/11 06:39:20;;;;;;;19.20;15.60;;;22.30;99.90;;;;;;4963583;28;20109;-76
2023/09/11 06:41:46;;;;;;;20.70;18.60;;;22.40;99.90;;;;;;4956762;28;20023;-76
2023/09/11 06:44:11;;;;;;;20.15;17.05;;;22.40;99.90;;;;;;4960182;28;20114;-76
2023/09/11 06:46:37;;;;;;;19.08;16.00;;;22.50;99.90;;;;;;4947121;28;20027;-76
2023/09/11 06:49:03;;;;;;;23.00;19.00;;;22.50;99.90;;;;;;4942567;28;20030;-77
2023/09/11 06:51:29;;;;;;;23.15;19.40;;;22.60;99.90;;;;;;4939159;28;20806;-77
2023/09/11 06:53:55;;;;;;;21.42;18.80;;;22.60;99.90;;;;;;4964122;28;20035;-76
2023/09/11 06:56:20;;;;;;;27.88;18.13;;;22.60;99.90;;;;;;4963557;28;20025;-76
2023/09/11 06:58:46;;;;;;;22.38;17.35;;;22.60;99.90;;;;;;4952556;28;20054;-76
2023/09/11 07:01:13;;;;;;;21.70;16.08;;;22.60;99.90;;;;;;4943874;28;20056;-76
2023/09/11 07:03:39;;;;;;;24.20;15.70;;;22.70;99.90;;;;;;4956828;28;20150;-75
2023/09/11 07:06:05;;;;;;;18.67;13.85;;;22.70;99.90;;;;;;4961516;28;20027;-76
2023/09/11 07:08:30;;;;;;;19.55;14.65;;;22.80;99.90;;;;;;4964667;28;20105;-77
2023/09/11 07:10:56;;;;;;;19.90;12.65;;;22.80;99.90;;;;;;4937034;28;20121;-76
2023/09/11 07:13:22;;;;;;;18.23;12.43;;;22.80;99.90;;;;;;4959633;28;20089;-77
2023/09/11 07:16:01;;;;;;;18.20;12.57;;;22.90;99.90;;;;;;4939177;28;20031;-77
2023/09/11 07:18:27;;;;;;;20.42;12.27;;;23.00;99.90;;;;;;4961511;28;20038;-78
2023/09/11 07:20:54;;;;;;;15.65;11.98;;;23.00;99.90;;;;;;4946815;28;20054;-77
2023/09/11 07:23:22;;;;;;;18.20;11.68;;;23.10;99.90;;;;;;4957714;28;20159;-76
2023/09/11 07:25:47;;;;;;;17.73;12.18;;;23.20;99.90;;;;;;4957114;28;20039;-76
2023/09/11 07:28:14;;;;;;;17.58;11.93;;;23.20;99.90;;;;;;4946934;29;20019;-77
2023/09/11 07:30:40;;;;;;;14.45;11.55;;;23.30;99.90;;;;;;4960856;28;20026;-76
2023/09/11 07:33:05;;;;;;;18.88;11.30;;;23.40;99.90;;;;;;4939012;28;20023;-76
2023/09/11 07:35:31;;;;;;;20.33;11.35;;;23.40;99.90;;;;;;4960599;28;20023;-77
2023/09/11 07:37:57;;;;;;;19.15;11.93;;;23.50;99.90;;;;;;4964120;28;20109;-77
2023/09/11 07:40:23;;;;;;;15.15;11.30;;;23.60;99.90;;;;;;4957171;28;20039;-77
2023/09/11 07:42:48;;;;;;;16.08;10.35;;;23.60;99.90;;;;;;4956499;28;20059;-77
2023/09/11 07:45:14;;;;;;;17.10;12.07;;;23.70;99.90;;;;;;4963846;28;20011;-76
2023/09/11 07:47:40;;;;;;;18.67;11.80;;;23.70;99.90;;;;;;4960862;28;20805;-76
2023/09/11 07:50:06;;;;;;;14.75;11.40;;;23.80;99.90;;;;;;4956137;28;20021;-77
2023/09/11 07:52:32;;;;;;;19.98;13.40;;;23.90;99.90;;;;;;4942756;29;20065;-77
2023/09/11 07:54:57;;;;;;;19.88;13.40;;;23.90;99.90;;;;;;4945710;28;20633;-78
2023/09/11 07:57:24;;;;;;;19.52;12.32;;;24.00;99.90;;;;;;4961769;28;20051;-76
2023/09/11 07:59:50;;;;;;;19.58;12.50;;;24.10;99.90;;;;;;4945757;28;20031;-78
2023/09/11 08:02:16;;;;;;;13.73;11.60;;;24.20;99.90;;;;;;4938280;28;20026;-77
2023/09/11 08:04:42;;;;;;;19.65;13.43;;;24.20;99.90;;;;;;4966741;28;20033;-77
2023/09/11 08:07:07;;;;;;;16.25;11.70;;;24.20;99.90;;;;;;4955309;28;20412;-77
2023/09/11 08:09:34;;;;;;;18.92;12.27;;;24.20;99.90;;;;;;4960245;28;20027;-76
2023/09/11 08:12:00;;;;;;;15.23;12.68;;;24.30;99.90;;;;;;4943973;29;20027;-77
2023/09/11 08:14:26;;;;;;;17.33;13.32;;;24.30;99.90;;;;;;4946210;29;20409;-78
2023/09/11 08:16:51;;;;;;;14.68;11.80;;;24.40;99.90;;;;;;4959184;28;20033;-77
2023/09/11 08:19:17;;;;;;;19.33;13.07;;;24.40;99.90;;;;;;4955509;28;20031;-77
2023/09/11 08:21:43;;;;;;;17.15;12.63;;;24.50;99.90;;;;;;4961629;28;20260;-76
2023/09/11 08:24:09;;;;;;;16.92;11.43;;;24.50;99.90;;;;;;4963155;28;20030;-77
2023/09/11 08:26:35;;;;;;;18.70;11.85;;;24.60;99.90;;;;;;4955110;28;20033;-76
2023/09/11 08:29:02;;;;;;;18.25;12.40;;;24.70;99.90;;;;;;4957939;28;20031;-77
2023/09/11 08:31:28;;;;;;;19.52;11.43;;;24.70;99.90;;;;;;4962964;28;20481;-77
2023/09/11 08:33:55;;;;;;;17.58;11.43;;;24.80;99.90;;;;;;4959550;28;20038;-77
2023/09/11 08:36:21;;;;;;;15.70;12.43;;;24.90;99.90;;;;;;4955359;28;20023;-76
2023/09/11 08:38:47;;;;;;;18.08;12.20;;;24.90;99.90;;;;;;4961521;28;20027;-76
2023/09/11 08:41:14;;;;;;;16.27;12.75;;;25.00;99.90;;;;;;4962755;28;20031;-77
2023/09/11 08:43:40;;;;;;;22.42;13.02;;;25.00;99.90;;;;;;4955134;28;20106;-76
2023/09/11 08:46:10;;;;;;;16.90;10.63;;;25.10;99.90;;;;;;4956626;28;20146;-76
2023/09/11 08:48:42;;;;;;;16.88;12.43;;;25.10;99.90;;;;;;4962771;28;20521;-76
2023/09/11 08:51:12;;;;;;;20.23;12.40;;;25.20;99.90;;;;;;4943072;28;20517;-76
2023/09/11 08:53:41;;;;;;;17.60;11.65;;;25.30;99.90;;;;;;4933282;29;20109;-76
2023/09/11 08:56:07;;;;;;;17.02;11.77;;;25.40;99.90;;;;;;4959536;28;20475;-77
2023/09/11 08:58:35;;;;;;;17.40;12.13;;;25.50;99.90;;;;;;4954868;28;20049;-77
2023/09/11 09:01:01;;;;;;;17.88;12.40;;;25.50;99.90;;;;;;4959396;28;20027;-76
2023/09/11 09:03:29;;;;;;;16.00;11.20;;;25.50;99.90;;;;;;4961213;28;20043;-76
2023/09/11 09:05:56;;;;;;;19.90;12.63;;;25.60;99.90;;;;;;4960980;28;20033;-76
2023/09/11 09:08:22;;;;;;;17.52;12.43;;;25.70;99.90;;;;;;4944613;28;20074;-76
2023/09/11 09:10:48;;;;;;;20.25;12.82;;;25.70;99.90;;;;;;4935285;28;20029;-76
2023/09/11 09:13:14;;;;;;;21.13;12.98;;;25.80;99.90;;;;;;4956491;28;20022;-76
2023/09/11 09:15:41;;;;;;;20.60;14.77;;;25.90;99.90;;;;;;4954618;28;20094;-76
2023/09/11 09:18:08;;;;;;;20.45;13.80;;;25.90;99.90;;;;;;4939898;28;20049;-76
2023/09/11 09:20:34;;;;;;;22.20;13.13;;;25.90;99.90;;;;;;4956214;28;20074;-77
2023/09/11 09:23:10;;;;;;;17.58;12.80;;;25.90;99.90;;;;;;4962005;28;20019;-76
2023/09/11 09:25:37;;;;;;;20.08;11.85;;;26.00;99.90;;;;;;4942893;28;20022;-76
2023/09/11 09:28:03;;;;;;;21.20;12.75;;;26.00;99.90;;;;;;4937074;28;20065;-76
2023/09/11 09:30:31;;;;;;;17.70;13.90;;;26.10;99.90;;;;;;4958559;28;20039;-77
2023/09/11 09:32:58;;;;;;;20.50;12.40;;;26.20;99.90;;;;;;4962039;28;20073;-76
2023/09/11 09:35:30;;;;;;;17.48;12.63;;;26.30;99.90;;;;;;4956946;28;20035;-77
2023/09/11 09:37:57;;;;;;;17.83;12.52;;;26.40;99.90;;;;;;4953835;28;20057;-76
2023/09/11 09:40:29;;;;;;;14.27;11.65;;;26.40;99.90;;;;;;4953864;28;20047;-77
2023/09/11 09:42:58;;;;;;;19.23;11.38;;;26.40;99.90;;;;;;4961560;28;20042;-76
2023/09/11 09:45:28;;;;;;;15.55;12.00;;;26.50;99.90;;;;;;4955142;28;20481;-76
2023/09/11 09:48:05;;;;;;;16.08;11.43;;;26.60;99.90;;;;;;4962977;28;20114;-76
2023/09/11 09:50:45;;;;;;;15.38;11.63;;;26.60;99.90;;;;;;4942193;28;20497;-76
2023/09/11 09:53:21;;;;;;;16.17;12.55;;;26.70;99.90;;;;;;4955526;28;20027;-76
2023/09/11 09:55:47;;;;;;;17.00;12.40;;;26.70;99.90;;;;;;4964247;28;20126;-76
2023/09/11 09:58:13;;;;;;;15.60;12.05;;;26.70;99.90;;;;;;4964325;28;20172;-76
2023/09/11 10:00:38;;;;;;;15.02;10.93;;;26.80;99.90;;;;;;4958067;28;20015;-76
2023/09/11 10:03:04;;;;;;;14.85;11.35;;;26.90;99.90;;;;;;4959623;28;20115;-76
2023/09/11 10:05:30;;;;;;;17.77;12.60;;;27.00;99.90;;;;;;4965875;28;20030;-76
2023/09/11 10:07:59;;;;;;;18.98;12.38;;;27.00;99.90;;;;;;4961690;28;20019;-76
2023/09/11 10:10:27;;;;;;;18.88;12.35;;;27.10;99.90;;;;;;4958293;28;20028;-76
2023/09/11 10:13:07;;;;;;;16.10;8.23;;;27.10;99.90;;;;;;4969851;28;20034;-76
2023/09/11 10:15:38;;;;;;;15.17;7.40;;;27.20;99.90;;;;;;4958885;28;20497;-77
2023/09/11 10:18:05;;;;;;;18.02;10.00;;;27.30;99.90;;;;;;4965668;28;20267;-76
2023/09/11 10:20:32;;;;;;;16.88;11.15;;;27.30;99.90;;;;;;4963357;28;20642;-77
2023/09/11 10:23:03;;;;;;;14.60;8.50;;;27.40;99.90;;;;;;4969660;28;20027;-77
2023/09/11 10:25:33;;;;;;;10.45;8.18;;;27.50;99.90;;;;;;4960762;28;20027;-77
2023/09/11 10:28:04;;;;;;;16.40;7.43;;;27.50;99.90;;;;;;4963846;28;20016;-76
2023/09/11 10:30:48;;;;;;;11.73;7.10;;;27.60;99.90;;;;;;4961604;28;20073;-77
2023/09/11 10:33:21;;;;;;;12.02;7.68;;;27.70;99.90;;;;;;4969384;28;20053;-77
2023/09/11 10:35:51;;;;;;;10.35;7.10;;;27.70;99.90;;;;;;4960432;28;20023;-77
2023/09/11 10:38:18;;;;;;;12.60;7.63;;;27.80;99.90;;;;;;4964745;28;20060;-78
2023/09/11 10:40:44;;;;;;;13.35;7.00;;;27.80;99.90;;;;;;4961362;28;20063;-77
2023/09/11 10:43:11;;;;;;;11.75;6.57;;;27.90;99.90;;;;;;4957048;28;20082;-77
2023/09/11 10:45:37;;;;;;;10.25;5.68;;;28.00;99.90;;;;;;4962634;28;20078;-77
2023/09/11 10:48:03;;;;;;;9.25;5.20;;;28.00;99.80;;;;;;4951166;28;20027;-77
2023/09/11 10:50:42;;;;;;;8.77;6.07;;;28.10;99.90;;;;;;4964343;28;20414;-77
2023/09/11 10:53:09;;;;;;;9.77;5.68;;;28.20;99.50;;;;;;4964490;28;20027;-77
2023/09/11 10:55:36;;;;;;;10.13;6.22;;;28.20;98.70;;;;;;4957910;28;20027;-77
2023/09/11 10:58:05;;;;;;;9.30;5.30;;;28.30;98.60;;;;;;4958179;28;20048;-77
2023/09/11 11:00:38;;;;;;;6.90;4.37;;;28.40;98.30;;;;;;4955885;28;20050;-77
2023/09/11 11:03:05;;;;;;;11.13;4.95;;;28.40;98.10;;;;;;4941185;29;20094;-77
2023/09/11 11:05:32;;;;;;;8.20;5.15;;;28.50;98.20;;;;;;4963592;28;20062;-77
2023/09/11 11:07:58;;;;;;;9.27;5.32;;;28.50;98.30;;;;;;4960967;28;20026;-77
2023/09/11 11:10:26;;;;;;;9.13;5.57;;;28.60;98.30;;;;;;4939417;28;20031;-77
2023/09/11 11:13:06;;;;;;;9.88;5.50;;;28.70;97.60;;;;;;4934538;29;20031;-77
2023/09/11 11:15:31;;;;;;;8.13;5.40;;;28.70;97.00;;;;;;4963391;28;20078;-77
2023/09/11 11:18:22;;;;;;;16.67;5.75;;;28.80;97.00;;;;;;4956358;28;20441;-77
2023/09/11 11:21:01;;;;;;;13.90;5.20;;;28.80;96.60;;;;;;4949834;28;20030;-77
2023/09/11 11:23:29;;;;;;;8.48;4.68;;;28.90;96.80;;;;;;4962108;28;20024;-77
2023/09/11 11:26:03;;;;;;;13.10;5.75;;;29.00;97.10;;;;;;4947052;28;20031;-77
2023/09/11 11:28:41;;;;;;;11.40;6.20;;;29.10;97.30;;;;;;4957411;28;20337;-77
2023/09/11 11:31:09;;;;;;;10.35;6.07;;;29.10;97.10;;;;;;4956579;28;20027;-77
2023/09/11 11:33:39;;;;;;;10.55;6.38;;;29.20;97.00;;;;;;4962621;28;20063;-77
2023/09/11 11:36:11;;;;;;;9.48;5.90;;;29.20;97.00;;;;;;4964235;28;20188;-77
2023/09/11 11:38:37;;;;;;;12.23;6.80;;;29.30;97.20;;;;;;4944053;28;20029;-77
2023/09/11 11:41:03;;;;;;;10.93;6.28;;;29.40;97.20;;;;;;4957228;28;20099;-77
2023/09/11 11:43:32;;;;;;;8.80;5.60;;;29.40;96.80;;;;;;4963729;28;20110;-77
2023/09/11 11:45:58;;;;;;;12.23;6.07;;;29.50;96.70;;;;;;4944281;28;20029;-78
2023/09/11 11:48:26;;;;;;;9.88;6.63;;;29.50;96.40;;;;;;4955924;28;20015;-77
2023/09/11 11:50:52;;;;;;;11.93;6.55;;;29.60;96.40;;;;;;4960279;28;20023;-77
2023/09/11 11:53:20;;;;;;;11.55;6.40;;;29.60;96.10;;;;;;4945986;28;20038;-78
2023/09/11 11:55:46;;;;;;;10.88;7.38;;;29.60;96.20;;;;;;4958015;28;20027;-77
2023/09/11 11:58:16;;;;;;;11.75;6.10;;;29.70;96.10;;;;;;4955870;28;20090;-78
2023/09/11 12:00:59;;;;;;;10.13;5.20;;;29.70;96.40;;;;;;4943654;28;20027;-77
2023/09/11 12:03:26;;;;;;;11.48;5.88;;;29.80;96.70;;;;;;4955545;28;20019;-77
2023/09/11 12:05:52;;;;;;;10.93;6.55;;;29.80;96.70;;;;;;4945078;29;20566;-78
2023/09/11 12:08:18;;;;;;;9.40;6.22;;;29.90;95.80;;;;;;4944594;28;20111;-77
2023/09/11 12:10:45;;;;;;;9.00;5.65;;;29.90;95.50;;;;;;4936963;28;20114;-78
2023/09/11 12:13:29;;;;;;;12.32;6.18;;;29.90;95.10;;;;;;4956898;28;20035;-77
2023/09/11 12:15:57;;;;;;;11.15;7.18;;;29.90;94.70;;;;;;4953219;28;20509;-77
2023/09/11 12:18:28;;;;;;;9.45;6.55;;;29.90;94.90;;;;;;4955922;28;20026;-78
2023/09/11 12:21:05;;;;;;;8.93;6.07;;;29.90;95.20;;;;;;4955533;28;20043;-77
2023/09/11 12:23:32;;;;;;;8.73;6.25;;;30.00;95.10;;;;;;4948164;29;20034;-78
2023/09/11 12:25:59;;;;;;;12.52;6.30;;;30.00;95.00;;;;;;4963318;28;20019;-77
2023/09/11 12:28:25;;;;;;;13.10;6.80;;;30.00;94.90;;;;;;4955673;28;20074;-77
2023/09/11 12:30:51;;;;;;;11.35;7.05;;;30.10;94.20;;;;;;4956792;28;20027;-77